Terminal Aerodrome Forecast
Issued by NWS Cleveland, OH

Home | Current Version | Previous Version | Text Only | Print | Product List | Glossary Off
Versions: 1 2 3 4 5 6 7 8 9 10 11 12 13 14 15 16 17 18 19

000
FTUS41 KCLE 181120
TAFCAK
TAF
KCAK 181120Z 1812/1912 06011KT P6SM BKN200
     FM181600 10016G26KT P6SM BKN120
     FM182000 10018G28KT P6SM OVC045
     FM190000 10018G28KT 6SM -SHRA BR OVC025
     FM190600 12015G25KT 6SM -SHRA BR OVC007=

USA.gov is the U.S. government's official web portal to all federal, state and local government web resources and services.